Time;durP1;ratioP1;P1;durP2;ratioP2;P2;SDS_P1;SDS_P2;PMS_P1;PMS_P2;Temp;Humidity;BMP_temperature;BMP_pressure;BME280_temperature;BME280_humidity;BME280_pressure;Samples;Min_cycle;Max_cycle;Signal;HPM_P1;HPM_P2
2023/06/22 00:01:46;;;;;;;20.38;13.25;;;;;;;;;;4990551;28;20033;-69
2023/06/22 00:04:11;;;;;;;18.27;12.77;;;;;;;;;;4988612;28;20046;-69
2023/06/22 00:06:37;;;;;;;19.65;13.07;;;;;;;;;;4993474;28;20392;-70
2023/06/22 00:09:03;;;;;;;18.77;12.80;;;;;;;;;;4991933;28;20018;-70
2023/06/22 00:11:28;;;;;;;19.13;12.90;;;;;;;;;;4995404;28;20101;-69
2023/06/22 00:13:53;;;;;;;18.05;12.68;;;;;;;;;;4992408;28;20022;-69
2023/06/22 00:16:19;;;;;;;18.48;13.45;;;;;;;;;;4996775;28;20423;-69
2023/06/22 00:18:46;;;;;;;20.63;12.95;;;;;;;;;;4995045;28;20026;-69
2023/06/22 00:21:12;;;;;;;17.35;12.73;;;;;;;;;;4987116;28;20026;-69
2023/06/22 00:23:37;;;;;;;17.83;13.45;;;;;;;;;;4996169;28;20022;-69
2023/06/22 00:26:03;;;;;;;21.58;14.40;;;;;;;;;;4996113;28;20172;-69
2023/06/22 00:28:28;;;;;;;19.83;13.73;;;;;;;;;;4996636;28;20488;-69
2023/06/22 00:30:54;;;;;;;18.63;13.93;;;;;;;;;;4995033;28;20121;-69
2023/06/22 00:33:19;;;;;;;20.55;14.30;;;;;;;;;;4994064;28;20026;-69
2023/06/22 00:35:44;;;;;;;20.27;14.55;;;;;;;;;;4995536;28;20083;-69
2023/06/22 00:38:10;;;;;;;23.58;15.23;;;;;;;;;;4995030;28;20506;-69
2023/06/22 00:40:35;;;;;;;24.30;15.68;;;;;;;;;;4993245;28;20038;-69
2023/06/22 00:43:00;;;;;;;24.00;15.82;;;;;;;;;;4995781;28;20027;-69
2023/06/22 00:45:26;;;;;;;24.55;16.30;;;;;;;;;;4995832;28;20073;-69
2023/06/22 00:47:58;;;;;;;24.80;17.40;;;;;;;;;;4994802;28;20033;-69
2023/06/22 00:50:24;;;;;;;27.45;19.10;;;;;;;;;;4995602;28;20038;-69
2023/06/22 00:52:56;;;;;;;26.25;19.33;;;;;;;;;;4994904;28;20030;-69
2023/06/22 00:55:21;;;;;;;27.15;18.33;;;;;;;;;;4996072;28;20041;-69
2023/06/22 00:57:47;;;;;;;25.60;17.50;;;;;;;;;;4994626;28;20022;-69
2023/06/22 01:03:16;;;;;;;23.55;17.17;;;;;;;;;;4994428;28;20412;-69
2023/06/22 01:05:42;;;;;;;25.30;17.45;;;;;;;;;;4994420;28;20018;-69
2023/06/22 01:08:30;;;;;;;28.33;18.13;;;;;;;;;;4994038;28;20461;-69
2023/06/22 01:11:25;;;;;;;29.55;18.90;;;;;;;;;;4984907;28;20038;-69
2023/06/22 01:13:57;;;;;;;31.90;20.33;;;;;;;;;;4976099;28;20114;-69
2023/06/22 01:16:34;;;;;;;27.25;19.63;;;;;;;;;;4994541;28;20096;-70
2023/06/22 01:19:01;;;;;;;28.90;18.40;;;;;;;;;;4994242;28;20015;-70
2023/06/22 01:21:29;;;;;;;25.42;17.80;;;;;;;;;;4995067;28;20507;-69
2023/06/22 01:24:15;;;;;;;26.98;17.90;;;;;;;;;;4992782;28;20396;-69
2023/06/22 01:27:21;;;;;;;27.75;18.48;;;;;;;;;;4917021;29;20375;-70
2023/06/22 01:29:47;;;;;;;31.77;20.00;;;;;;;;;;4868934;29;20040;-69
2023/06/22 01:32:13;;;;;;;28.83;19.45;;;;;;;;;;4876846;29;20551;-70
2023/06/22 01:34:40;;;;;;;30.15;19.35;;;;;;;;;;4887809;29;20041;-69
2023/06/22 01:37:06;;;;;;;27.23;18.58;;;;;;;;;;4868197;29;20048;-70
2023/06/22 01:39:31;;;;;;;26.50;18.63;;;;;;;;;;4869832;29;20115;-69
2023/06/22 01:41:57;;;;;;;27.70;19.27;;;;;;;;;;4878738;29;20132;-70
2023/06/22 01:44:22;;;;;;;28.23;19.02;;;;;;;;;;4882172;29;20029;-70
2023/06/22 01:46:49;;;;;;;29.48;19.27;;;;;;;;;;4873448;29;20081;-69
2023/06/22 01:49:14;;;;;;;31.85;20.73;;;;;;;;;;4881889;29;20063;-69
2023/06/22 01:51:40;;;;;;;30.42;20.58;;;;;;;;;;4878196;29;20104;-70
2023/06/22 01:54:06;;;;;;;31.60;20.45;;;;;;;;;;4876866;29;20037;-69
2023/06/22 01:56:31;;;;;;;26.70;18.92;;;;;;;;;;4878486;29;20507;-70
2023/06/22 01:59:00;;;;;;;26.02;18.65;;;;;;;;;;4878500;29;20040;-69
2023/06/22 02:01:27;;;;;;;31.08;19.50;;;;;;;;;;4929075;28;20039;-69
2023/06/22 02:04:11;;;;;;;27.75;18.98;;;;;;;;;;4993238;28;20507;-69
2023/06/22 02:06:37;;;;;;;28.50;19.60;;;;;;;;;;4977529;28;20030;-68
2023/06/22 02:09:08;;;;;;;30.05;19.52;;;;;;;;;;4989413;28;20520;-65
2023/06/22 02:11:33;;;;;;;33.38;21.10;;;;;;;;;;4994706;28;20030;-67
2023/06/22 02:13:59;;;;;;;33.25;22.42;;;;;;;;;;4993466;28;20542;-64
2023/06/22 02:16:24;;;;;;;33.15;21.40;;;;;;;;;;4993019;28;20037;-65
2023/06/22 02:18:53;;;;;;;34.13;21.98;;;;;;;;;;4993345;28;20025;-65
2023/06/22 02:21:19;;;;;;;33.10;21.95;;;;;;;;;;4992396;28;20026;-66
2023/06/22 02:23:44;;;;;;;35.60;22.00;;;;;;;;;;4993142;28;20472;-65
2023/06/22 02:26:09;;;;;;;34.05;22.02;;;;;;;;;;4994125;28;20097;-64
2023/06/22 02:28:35;;;;;;;32.03;22.63;;;;;;;;;;4989028;28;20026;-64
2023/06/22 02:31:00;;;;;;;34.20;21.35;;;;;;;;;;4993230;28;20034;-64
2023/06/22 02:33:25;;;;;;;31.67;20.40;;;;;;;;;;4993200;28;20036;-64
2023/06/22 02:35:50;;;;;;;32.72;21.58;;;;;;;;;;4992454;28;20408;-64
2023/06/22 02:38:17;;;;;;;30.73;20.75;;;;;;;;;;4993010;28;20026;-64
2023/06/22 02:40:42;;;;;;;33.50;20.92;;;;;;;;;;4994329;28;20025;-64
2023/06/22 02:43:07;;;;;;;36.97;22.92;;;;;;;;;;4993927;28;20460;-64
2023/06/22 02:45:33;;;;;;;36.22;22.58;;;;;;;;;;4993092;28;20026;-65
2023/06/22 02:47:58;;;;;;;39.10;24.38;;;;;;;;;;4993381;28;20014;-65
2023/06/22 02:50:23;;;;;;;39.55;24.75;;;;;;;;;;4988104;28;20389;-65
2023/06/22 02:52:49;;;;;;;33.75;22.50;;;;;;;;;;4988005;28;20030;-65
2023/06/22 02:55:14;;;;;;;37.20;23.38;;;;;;;;;;4993337;28;20030;-64
2023/06/22 02:57:43;;;;;;;36.40;24.33;;;;;;;;;;4993385;28;20023;-64
2023/06/22 03:00:16;;;;;;;37.42;23.88;;;;;;;;;;4975331;28;20031;-64
2023/06/22 03:02:42;;;;;;;38.95;23.67;;;;;;;;;;4993765;28;20136;-65
2023/06/22 03:05:09;;;;;;;34.08;22.38;;;;;;;;;;4993256;28;20022;-65
2023/06/22 03:07:35;;;;;;;33.67;23.25;;;;;;;;;;4993023;28;20018;-64
2023/06/22 03:10:00;;;;;;;31.25;21.30;;;;;;;;;;4992684;28;20029;-64
2023/06/22 03:12:25;;;;;;;33.13;22.20;;;;;;;;;;4993419;28;20492;-64
2023/06/22 03:14:51;;;;;;;32.13;20.25;;;;;;;;;;4993667;28;20073;-64
2023/06/22 03:17:16;;;;;;;34.42;20.65;;;;;;;;;;4993898;28;20034;-64
2023/06/22 03:19:41;;;;;;;28.38;18.52;;;;;;;;;;4992826;28;20385;-64
2023/06/22 03:22:07;;;;;;;29.08;19.08;;;;;;;;;;4990982;28;20037;-64
2023/06/22 03:24:34;;;;;;;26.00;18.52;;;;;;;;;;4992769;28;20097;-65
2023/06/22 03:27:00;;;;;;;25.20;17.25;;;;;;;;;;4992039;28;20018;-65
2023/06/22 03:29:25;;;;;;;24.65;17.10;;;;;;;;;;4993514;28;20081;-64
2023/06/22 03:31:50;;;;;;;25.48;17.27;;;;;;;;;;4993096;28;20022;-64
2023/06/22 03:34:16;;;;;;;23.98;16.58;;;;;;;;;;4987684;28;20388;-64
2023/06/22 03:36:42;;;;;;;24.63;16.10;;;;;;;;;;4986413;28;20072;-64
2023/06/22 03:39:07;;;;;;;22.10;15.13;;;;;;;;;;4986975;28;20042;-64
2023/06/22 03:41:33;;;;;;;23.20;15.32;;;;;;;;;;4993006;28;20066;-64
2023/06/22 03:43:58;;;;;;;20.80;14.95;;;;;;;;;;4991679;28;20046;-64
2023/06/22 03:46:23;;;;;;;25.73;15.27;;;;;;;;;;4995616;28;20468;-65
2023/06/22 03:48:48;;;;;;;21.30;14.63;;;;;;;;;;4995450;28;20029;-64
2023/06/22 03:51:14;;;;;;;20.27;14.02;;;;;;;;;;4995200;28;20354;-64
2023/06/22 03:53:39;;;;;;;22.10;14.75;;;;;;;;;;4994263;28;20024;-64
2023/06/22 03:56:04;;;;;;;19.85;13.95;;;;;;;;;;4996476;28;20026;-64
2023/06/22 03:58:32;;;;;;;20.65;13.65;;;;;;;;;;4996685;28;20419;-64
2023/06/22 04:00:58;;;;;;;21.90;13.85;;;;;;;;;;4994429;28;20528;-64
2023/06/22 04:03:23;;;;;;;19.92;13.40;;;;;;;;;;4992932;28;20121;-64
2023/06/22 04:05:48;;;;;;;19.48;13.52;;;;;;;;;;4995078;28;20040;-64
2023/06/22 04:08:14;;;;;;;20.40;12.90;;;;;;;;;;4994865;28;20045;-64
2023/06/22 04:10:39;;;;;;;17.33;12.32;;;;;;;;;;4996860;28;20098;-64
2023/06/22 04:13:05;;;;;;;18.83;12.57;;;;;;;;;;4986364;28;20021;-63
2023/06/22 04:15:30;;;;;;;17.08;12.60;;;;;;;;;;4995812;28;20033;-64
2023/06/22 04:17:56;;;;;;;22.85;12.43;;;;;;;;;;4995665;28;20056;-64
2023/06/22 04:20:21;;;;;;;17.58;11.90;;;;;;;;;;4995498;28;20041;-64
2023/06/22 04:22:46;;;;;;;17.92;12.00;;;;;;;;;;4993477;28;20049;-63
2023/06/22 04:25:12;;;;;;;17.23;11.18;;;;;;;;;;4992870;28;20046;-64
2023/06/22 04:27:39;;;;;;;14.68;10.73;;;;;;;;;;4995451;28;20014;-64
2023/06/22 04:30:06;;;;;;;17.52;12.43;;;;;;;;;;4995940;28;20029;-63
2023/06/22 04:32:32;;;;;;;17.77;11.82;;;;;;;;;;4993992;28;20022;-63
2023/06/22 04:34:57;;;;;;;16.27;11.60;;;;;;;;;;4995310;28;20093;-64
2023/06/22 04:37:23;;;;;;;16.63;11.68;;;;;;;;;;4992702;28;20023;-64
2023/06/22 04:39:48;;;;;;;20.08;11.48;;;;;;;;;;4995333;28;20053;-64
2023/06/22 04:42:14;;;;;;;17.17;11.30;;;;;;;;;;4996536;28;20030;-63
2023/06/22 04:44:39;;;;;;;19.13;11.15;;;;;;;;;;4995042;28;20423;-63
2023/06/22 04:47:08;;;;;;;16.77;10.73;;;;;;;;;;4995986;28;20010;-62
2023/06/22 04:49:35;;;;;;;17.52;10.23;;;;;;;;;;4996414;28;20089;-63
2023/06/22 04:52:01;;;;;;;16.02;10.70;;;;;;;;;;4994248;28;20492;-62
2023/06/22 04:54:27;;;;;;;14.23;10.30;;;;;;;;;;4995333;28;20096;-62
2023/06/22 04:56:58;;;;;;;17.85;10.85;;;;;;;;;;4995386;28;20018;-61
2023/06/22 04:59:27;;;;;;;14.20;9.50;;;;;;;;;;4993252;28;20026;-61
2023/06/22 05:01:53;;;;;;;14.55;9.85;;;;;;;;;;4996100;28;20033;-61
2023/06/22 05:04:19;;;;;;;14.90;9.43;;;;;;;;;;4994610;28;20050;-61
2023/06/22 05:06:45;;;;;;;17.48;10.25;;;;;;;;;;4994232;28;20080;-61
2023/06/22 05:09:11;;;;;;;14.07;9.60;;;;;;;;;;4995156;28;20134;-61
2023/06/22 05:11:37;;;;;;;15.93;8.50;;;;;;;;;;4996040;28;20556;-62
2023/06/22 05:14:02;;;;;;;15.73;9.43;;;;;;;;;;4995665;28;20114;-62
2023/06/22 05:16:28;;;;;;;13.57;8.63;;;;;;;;;;4995569;28;20108;-62
2023/06/22 05:18:54;;;;;;;11.88;8.77;;;;;;;;;;4994664;28;20022;-62
2023/06/22 05:21:23;;;;;;;13.60;9.18;;;;;;;;;;4995824;28;20030;-63
2023/06/22 05:23:48;;;;;;;16.77;9.95;;;;;;;;;;4994274;28;20027;-63
2023/06/22 05:26:13;;;;;;;16.45;9.73;;;;;;;;;;4993708;28;20536;-63
2023/06/22 05:28:39;;;;;;;14.98;9.55;;;;;;;;;;4995711;28;20101;-62
2023/06/22 05:31:04;;;;;;;14.50;9.45;;;;;;;;;;4994643;28;20464;-63
2023/06/22 05:33:29;;;;;;;13.73;9.65;;;;;;;;;;4977888;28;20028;-62
2023/06/22 05:35:54;;;;;;;14.45;9.43;;;;;;;;;;4995487;28;20093;-62
2023/06/22 05:38:20;;;;;;;13.70;8.48;;;;;;;;;;4993507;28;20026;-61
2023/06/22 05:40:45;;;;;;;10.27;7.68;;;;;;;;;;4993480;28;20370;-61
2023/06/22 05:43:10;;;;;;;11.88;8.05;;;;;;;;;;4995321;28;20037;-62
2023/06/22 05:45:36;;;;;;;12.88;7.57;;;;;;;;;;4994997;28;20077;-62
2023/06/22 05:48:01;;;;;;;12.63;7.32;;;;;;;;;;4994216;28;20019;-62
2023/06/22 05:50:26;;;;;;;12.65;7.25;;;;;;;;;;4995218;28;20364;-62
2023/06/22 05:52:52;;;;;;;10.23;6.85;;;;;;;;;;4990236;28;20042;-62
2023/06/22 05:55:18;;;;;;;11.25;7.68;;;;;;;;;;4993354;28;20046;-62
2023/06/22 05:57:44;;;;;;;11.38;7.55;;;;;;;;;;4993886;28;20022;-62
2023/06/22 06:00:11;;;;;;;11.18;7.53;;;;;;;;;;4994681;28;20097;-63
2023/06/22 06:02:36;;;;;;;10.82;7.45;;;;;;;;;;4994462;28;20151;-63
2023/06/22 06:05:02;;;;;;;11.65;7.15;;;;;;;;;;4995137;28;20098;-63
2023/06/22 06:07:28;;;;;;;10.68;7.60;;;;;;;;;;4993344;28;20029;-63
2023/06/22 06:09:53;;;;;;;12.45;7.65;;;;;;;;;;4993056;28;20010;-63
2023/06/22 06:12:18;;;;;;;12.98;8.25;;;;;;;;;;4994555;28;20073;-62
2023/06/22 06:14:43;;;;;;;14.05;8.50;;;;;;;;;;4994894;28;20022;-62
2023/06/22 06:17:09;;;;;;;11.07;7.57;;;;;;;;;;4988186;28;20488;-62
2023/06/22 06:19:34;;;;;;;13.43;7.85;;;;;;;;;;4980323;28;20057;-62
2023/06/22 06:22:00;;;;;;;10.82;7.22;;;;;;;;;;4993423;28;20026;-62
2023/06/22 06:24:25;;;;;;;12.27;7.57;;;;;;;;;;4993038;28;20105;-62
2023/06/22 06:26:50;;;;;;;11.40;7.13;;;;;;;;;;4994592;28;20080;-62
2023/06/22 06:29:16;;;;;;;10.90;7.10;;;;;;;;;;4994612;28;20411;-62
2023/06/22 06:31:41;;;;;;;9.07;6.05;;;;;;;;;;4993262;28;20030;-61
2023/06/22 06:34:07;;;;;;;11.77;6.38;;;;;;;;;;4994255;28;20026;-62
2023/06/22 06:36:32;;;;;;;10.70;5.97;;;;;;;;;;4994076;28;20104;-62
2023/06/22 06:38:57;;;;;;;9.38;6.20;;;;;;;;;;4992684;28;20077;-62
2023/06/22 06:41:22;;;;;;;9.40;6.00;;;;;;;;;;4993846;28;20105;-62
2023/06/22 06:43:48;;;;;;;9.35;6.43;;;;;;;;;;4994409;28;20469;-62
2023/06/22 06:46:13;;;;;;;9.07;5.82;;;;;;;;;;4993440;28;20493;-62
2023/06/22 06:48:39;;;;;;;9.10;5.90;;;;;;;;;;4992042;28;20050;-62
2023/06/22 06:51:05;;;;;;;10.85;5.95;;;;;;;;;;4989069;28;20018;-61
2023/06/22 06:53:30;;;;;;;8.32;5.85;;;;;;;;;;4992031;28;20094;-61
2023/06/22 06:55:55;;;;;;;8.07;5.05;;;;;;;;;;4992510;28;20526;-63
2023/06/22 06:58:22;;;;;;;8.73;5.53;;;;;;;;;;4992101;28;20041;-61
2023/06/22 07:00:48;;;;;;;8.48;5.20;;;;;;;;;;4992043;28;20503;-62
2023/06/22 07:03:13;;;;;;;9.15;5.30;;;;;;;;;;4987143;28;20074;-61
2023/06/22 07:05:39;;;;;;;7.68;5.07;;;;;;;;;;4993873;28;20025;-61
2023/06/22 07:08:04;;;;;;;9.45;5.25;;;;;;;;;;4978968;28;20077;-62
2023/06/22 07:10:29;;;;;;;8.50;5.22;;;;;;;;;;4992205;28;20018;-62
2023/06/22 07:12:55;;;;;;;9.73;5.20;;;;;;;;;;4993920;28;20070;-61
2023/06/22 07:15:20;;;;;;;8.88;5.30;;;;;;;;;;4993945;28;20026;-61
2023/06/22 07:17:45;;;;;;;7.50;4.97;;;;;;;;;;4993668;28;20014;-61
2023/06/22 07:20:13;;;;;;;6.82;4.38;;;;;;;;;;4990956;28;20480;-61
2023/06/22 07:22:39;;;;;;;8.48;4.70;;;;;;;;;;4993589;28;20022;-61
2023/06/22 07:25:09;;;;;;;7.60;4.72;;;;;;;;;;4990593;28;20034;-61
2023/06/22 07:27:43;;;;;;;8.38;4.53;;;;;;;;;;4992206;28;20022;-60
2023/06/22 07:30:09;;;;;;;6.68;4.75;;;;;;;;;;4993780;28;20469;-62
2023/06/22 07:32:35;;;;;;;7.95;4.40;;;;;;;;;;4989249;28;20098;-61
2023/06/22 07:35:01;;;;;;;7.70;4.78;;;;;;;;;;4993755;28;20551;-61
2023/06/22 07:37:27;;;;;;;7.00;4.30;;;;;;;;;;4990689;28;20042;-61
2023/06/22 07:39:53;;;;;;;5.90;4.05;;;;;;;;;;4992329;28;20031;-61
2023/06/22 07:42:19;;;;;;;7.68;4.30;;;;;;;;;;4993458;28;20030;-61
2023/06/22 07:44:44;;;;;;;7.38;4.28;;;;;;;;;;4992367;28;20469;-60
2023/06/22 07:47:09;;;;;;;6.43;4.25;;;;;;;;;;4990648;28;20023;-60
2023/06/22 07:49:35;;;;;;;7.72;4.68;;;;;;;;;;4993316;28;20101;-61
2023/06/22 07:52:01;;;;;;;7.55;4.05;;;;;;;;;;4993197;28;20072;-61
2023/06/22 07:54:27;;;;;;;5.60;3.72;;;;;;;;;;4989377;28;20026;-61
2023/06/22 07:56:52;;;;;;;6.32;3.47;;;;;;;;;;4988758;28;20037;-60
2023/06/22 07:59:17;;;;;;;6.47;3.78;;;;;;;;;;4993158;28;20468;-61
2023/06/22 08:01:43;;;;;;;6.15;3.88;;;;;;;;;;4993012;28;20109;-62
2023/06/22 08:04:08;;;;;;;7.13;3.67;;;;;;;;;;4991460;28;20411;-61
2023/06/22 08:06:33;;;;;;;5.20;3.15;;;;;;;;;;4993444;28;20024;-61
2023/06/22 08:08:59;;;;;;;6.43;3.60;;;;;;;;;;4992597;28;20094;-61
2023/06/22 08:11:25;;;;;;;6.75;4.03;;;;;;;;;;4991651;28;20480;-62
2023/06/22 08:13:50;;;;;;;6.82;4.13;;;;;;;;;;4993276;28;20464;-62
2023/06/22 08:16:15;;;;;;;6.60;3.95;;;;;;;;;;4990325;28;20033;-61
2023/06/22 08:18:41;;;;;;;6.75;4.05;;;;;;;;;;4993056;28;20034;-61
2023/06/22 08:21:06;;;;;;;6.65;3.97;;;;;;;;;;4984915;28;20109;-62
2023/06/22 08:23:31;;;;;;;6.13;3.95;;;;;;;;;;4978180;28;20408;-61
2023/06/22 08:25:57;;;;;;;5.85;3.35;;;;;;;;;;4991420;28;20018;-61
2023/06/22 08:28:22;;;;;;;7.07;4.45;;;;;;;;;;4993020;28;20077;-62
2023/06/22 08:30:47;;;;;;;6.90;3.78;;;;;;;;;;4992939;28;20105;-61
2023/06/22 08:33:13;;;;;;;5.75;3.63;;;;;;;;;;4995297;28;20023;-61
2023/06/22 08:35:38;;;;;;;7.78;4.22;;;;;;;;;;4996667;28;20098;-61
2023/06/22 08:38:04;;;;;;;5.80;3.50;;;;;;;;;;4996737;28;20584;-60
2023/06/22 08:40:29;;;;;;;8.50;3.90;;;;;;;;;;4994829;28;20084;-60
2023/06/22 08:42:54;;;;;;;6.53;4.10;;;;;;;;;;4996636;28;20380;-60
2023/06/22 08:45:20;;;;;;;6.47;4.05;;;;;;;;;;4995247;28;20022;-60
2023/06/22 08:47:45;;;;;;;6.88;4.50;;;;;;;;;;4996589;28;20018;-60
2023/06/22 08:50:11;;;;;;;7.72;4.18;;;;;;;;;;4996466;28;20476;-60
2023/06/22 08:52:37;;;;;;;9.15;4.55;;;;;;;;;;4996106;28;20027;-60
2023/06/22 08:55:02;;;;;;;8.25;4.22;;;;;;;;;;4992621;28;20035;-60
2023/06/22 08:57:28;;;;;;;7.57;4.43;;;;;;;;;;4994776;28;20334;-60
2023/06/22 08:59:53;;;;;;;8.07;4.60;;;;;;;;;;4978571;28;20441;-59
2023/06/22 09:02:19;;;;;;;6.47;4.60;;;;;;;;;;4976332;28;20098;-60
2023/06/22 09:04:45;;;;;;;8.02;4.82;;;;;;;;;;4979400;28;20027;-60
2023/06/22 09:07:11;;;;;;;8.60;5.00;;;;;;;;;;4994817;28;20086;-60
2023/06/22 09:09:36;;;;;;;7.00;4.32;;;;;;;;;;4994866;28;20031;-60
2023/06/22 09:12:02;;;;;;;10.30;4.80;;;;;;;;;;4994046;28;20022;-60
2023/06/22 09:14:27;;;;;;;7.40;4.53;;;;;;;;;;4995959;28;20034;-60
2023/06/22 09:16:52;;;;;;;8.48;5.05;;;;;;;;;;4994916;28;20480;-61
2023/06/22 09:19:18;;;;;;;6.90;4.40;;;;;;;;;;4993975;28;20480;-61
2023/06/22 09:21:43;;;;;;;8.15;5.30;;;;;;;;;;4994063;28;20030;-62
2023/06/22 09:24:08;;;;;;;7.80;5.15;;;;;;;;;;4994411;28;20019;-62
2023/06/22 09:26:34;;;;;;;8.00;5.80;;;;;;;;;;4992275;28;20022;-61
2023/06/22 09:28:59;;;;;;;8.07;5.30;;;;;;;;;;4990063;28;20019;-60
2023/06/22 09:31:27;;;;;;;7.22;5.05;;;;;;;;;;4987493;28;20500;-60
2023/06/22 09:33:53;;;;;;;8.40;5.22;;;;;;;;;;4984287;28;20015;-60
2023/06/22 09:36:18;;;;;;;11.88;5.40;;;;;;;;;;4995531;28;20065;-61
2023/06/22 09:38:44;;;;;;;6.55;4.35;;;;;;;;;;4995291;28;20380;-60
2023/06/22 09:41:09;;;;;;;6.70;4.97;;;;;;;;;;4989991;28;20094;-60
2023/06/22 09:43:37;;;;;;;6.75;4.70;;;;;;;;;;4993213;28;20027;-60
2023/06/22 09:46:02;;;;;;;8.13;5.13;;;;;;;;;;4992490;28;20469;-61
2023/06/22 09:48:29;;;;;;;7.85;5.43;;;;;;;;;;4995401;28;20017;-61
2023/06/22 09:50:54;;;;;;;8.20;5.18;;;;;;;;;;4994498;28;20021;-62
2023/06/22 09:53:19;;;;;;;8.52;5.18;;;;;;;;;;4992052;28;20379;-62
2023/06/22 09:55:45;;;;;;;8.75;5.65;;;;;;;;;;4992205;28;20420;-62
2023/06/22 09:58:10;;;;;;;7.95;5.25;;;;;;;;;;4990479;28;20122;-63
2023/06/22 10:00:35;;;;;;;7.63;5.28;;;;;;;;;;4989812;28;20064;-62
2023/06/22 10:03:01;;;;;;;6.85;4.95;;;;;;;;;;4994654;28;20455;-63
2023/06/22 10:05:26;;;;;;;11.05;5.43;;;;;;;;;;4995079;28;20026;-62
2023/06/22 10:07:51;;;;;;;7.20;5.35;;;;;;;;;;4992035;28;20014;-62
2023/06/22 10:10:17;;;;;;;8.30;5.50;;;;;;;;;;4992535;28;20388;-61
2023/06/22 10:12:45;;;;;;;6.75;4.70;;;;;;;;;;4990107;28;20033;-62
2023/06/22 10:15:11;;;;;;;6.70;4.72;;;;;;;;;;4994528;28;20026;-63
2023/06/22 10:17:36;;;;;;;6.65;4.20;;;;;;;;;;4993450;28;20153;-63
2023/06/22 10:20:11;;;;;;;7.43;5.03;;;;;;;;;;4994581;28;20038;-62
2023/06/22 10:22:37;;;;;;;6.50;4.50;;;;;;;;;;4994215;28;20173;-63
2023/06/22 10:25:02;;;;;;;10.15;4.75;;;;;;;;;;4990617;28;20029;-63
2023/06/22 10:27:28;;;;;;;8.27;5.05;;;;;;;;;;4991912;28;20414;-63
2023/06/22 10:29:53;;;;;;;6.57;4.03;;;;;;;;;;4993320;28;20412;-63
2023/06/22 10:32:19;;;;;;;7.65;4.38;;;;;;;;;;4985888;28;20421;-62
2023/06/22 10:34:44;;;;;;;6.72;4.18;;;;;;;;;;4975149;28;20019;-64
2023/06/22 10:37:09;;;;;;;6.82;4.03;;;;;;;;;;4991905;28;20034;-63
2023/06/22 10:39:34;;;;;;;7.90;4.93;;;;;;;;;;4992840;28;20038;-63
2023/06/22 10:42:00;;;;;;;6.47;4.15;;;;;;;;;;4992214;28;20098;-63
2023/06/22 10:44:25;;;;;;;7.32;4.85;;;;;;;;;;4994097;28;20057;-62
2023/06/22 10:46:50;;;;;;;6.70;4.53;;;;;;;;;;4993298;28;20014;-65
2023/06/22 10:49:16;;;;;;;6.53;4.47;;;;;;;;;;4987537;28;20023;-63
2023/06/22 10:51:41;;;;;;;9.27;4.38;;;;;;;;;;4974844;28;20030;-63
2023/06/22 10:54:06;;;;;;;8.77;4.82;;;;;;;;;;4976566;28;20481;-63
2023/06/22 10:56:33;;;;;;;10.15;4.53;;;;;;;;;;4988809;28;20117;-63
2023/06/22 10:58:58;;;;;;;8.65;5.07;;;;;;;;;;4992494;28;20480;-63
2023/06/22 11:01:24;;;;;;;10.05;4.82;;;;;;;;;;4992517;28;20109;-62
2023/06/22 11:03:49;;;;;;;8.00;4.72;;;;;;;;;;4993614;28;20500;-63
2023/06/22 11:06:15;;;;;;;12.77;5.25;;;;;;;;;;4992176;28;20117;-63
2023/06/22 11:08:40;;;;;;;7.63;5.18;;;;;;;;;;4993679;28;20022;-63
2023/06/22 11:11:05;;;;;;;8.80;4.70;;;;;;;;;;4991309;28;20527;-62
2023/06/22 11:13:30;;;;;;;10.35;5.28;;;;;;;;;;4990057;28;20046;-63
2023/06/22 11:15:56;;;;;;;7.97;4.70;;;;;;;;;;4992052;28;20034;-63
2023/06/22 11:18:23;;;;;;;7.05;4.50;;;;;;;;;;4989409;28;20026;-63
2023/06/22 11:20:49;;;;;;;6.22;4.18;;;;;;;;;;4989752;28;20392;-63
2023/06/22 11:23:14;;;;;;;7.43;4.57;;;;;;;;;;4991325;28;20424;-63
2023/06/22 11:25:41;;;;;;;7.88;4.78;;;;;;;;;;4991781;28;20077;-62
2023/06/22 11:28:07;;;;;;;5.82;4.38;;;;;;;;;;4993727;28;20018;-63
2023/06/22 11:30:32;;;;;;;6.55;4.50;;;;;;;;;;4993440;28;20046;-62
2023/06/22 11:32:58;;;;;;;6.80;4.50;;;;;;;;;;4993401;28;20029;-62
2023/06/22 11:35:23;;;;;;;6.35;4.45;;;;;;;;;;4991621;28;20023;-62
2023/06/22 11:37:48;;;;;;;6.28;4.40;;;;;;;;;;4992354;28;20377;-63
2023/06/22 11:40:14;;;;;;;6.28;4.20;;;;;;;;;;4990656;28;20134;-63
2023/06/22 11:42:39;;;;;;;5.70;4.30;;;;;;;;;;4991444;28;20423;-62
2023/06/22 11:45:05;;;;;;;5.57;3.92;;;;;;;;;;4992325;28;20592;-63
2023/06/22 11:47:30;;;;;;;8.45;5.22;;;;;;;;;;4993253;28;20014;-63
2023/06/22 11:49:55;;;;;;;7.93;5.00;;;;;;;;;;4993570;28;20146;-63
2023/06/22 11:52:21;;;;;;;7.90;5.10;;;;;;;;;;4992396;28;20037;-63
2023/06/22 11:54:46;;;;;;;10.80;5.30;;;;;;;;;;4991383;28;20023;-63
2023/06/22 11:57:11;;;;;;;6.97;5.15;;;;;;;;;;4986077;28;20029;-63
2023/06/22 11:59:37;;;;;;;8.50;4.40;;;;;;;;;;4989993;28;20472;-64
2023/06/22 12:02:03;;;;;;;12.05;4.55;;;;;;;;;;4992067;28;20465;-62
2023/06/22 12:04:28;;;;;;;6.80;4.25;;;;;;;;;;4989700;28;20039;-60
2023/06/22 12:06:54;;;;;;;6.20;4.40;;;;;;;;;;4992595;28;20089;-62
2023/06/22 12:09:19;;;;;;;6.68;4.30;;;;;;;;;;4996556;28;20353;-62
2023/06/22 12:11:44;;;;;;;8.55;4.63;;;;;;;;;;4995366;28;20037;-62
2023/06/22 12:14:10;;;;;;;6.75;4.20;;;;;;;;;;4996658;28;20022;-62
2023/06/22 12:16:35;;;;;;;7.10;4.40;;;;;;;;;;4996333;28;20030;-61
2023/06/22 12:19:00;;;;;;;8.88;4.57;;;;;;;;;;4996794;28;20427;-62
2023/06/22 12:21:25;;;;;;;8.07;4.55;;;;;;;;;;4996538;28;20018;-62
2023/06/22 12:23:51;;;;;;;9.43;4.40;;;;;;;;;;4996852;28;20050;-62
2023/06/22 12:26:16;;;;;;;6.40;4.30;;;;;;;;;;4994038;28;21028;-62
2023/06/22 12:28:41;;;;;;;6.28;4.35;;;;;;;;;;4993329;28;20064;-61
2023/06/22 12:31:06;;;;;;;5.97;4.20;;;;;;;;;;4996852;28;20022;-62
2023/06/22 12:33:32;;;;;;;6.10;3.78;;;;;;;;;;4994827;28;20921;-62
2023/06/22 12:35:57;;;;;;;6.47;4.10;;;;;;;;;;4995934;28;20042;-63
2023/06/22 12:38:25;;;;;;;6.82;4.10;;;;;;;;;;4995685;28;20018;-64
2023/06/22 12:40:50;;;;;;;7.00;4.57;;;;;;;;;;4995233;28;20054;-62
2023/06/22 12:43:16;;;;;;;6.35;4.38;;;;;;;;;;4988643;28;20284;-62
2023/06/22 12:45:41;;;;;;;6.75;4.15;;;;;;;;;;4995470;28;20026;-62
2023/06/22 12:48:06;;;;;;;7.10;4.10;;;;;;;;;;4996217;28;20046;-62
2023/06/22 12:50:32;;;;;;;5.50;3.92;;;;;;;;;;4993321;28;20026;-62
2023/06/22 12:52:57;;;;;;;7.72;4.28;;;;;;;;;;4994087;28;20507;-62
2023/06/22 12:55:23;;;;;;;8.20;4.22;;;;;;;;;;4992915;28;20018;-63
2023/06/22 12:57:48;;;;;;;7.07;4.07;;;;;;;;;;4996227;28;20021;-63
2023/06/22 13:00:14;;;;;;;6.65;4.22;;;;;;;;;;4995764;28;20385;-63
2023/06/22 13:02:39;;;;;;;7.53;4.30;;;;;;;;;;4995134;28;20038;-64
2023/06/22 13:05:07;;;;;;;6.32;4.10;;;;;;;;;;4995791;28;20034;-63
2023/06/22 13:07:32;;;;;;;5.95;4.05;;;;;;;;;;4995134;28;20057;-63
2023/06/22 13:09:58;;;;;;;8.23;4.30;;;;;;;;;;4996182;28;20053;-62
2023/06/22 13:12:23;;;;;;;7.25;4.10;;;;;;;;;;4993661;28;20492;-63
2023/06/22 13:14:48;;;;;;;7.05;4.10;;;;;;;;;;4995173;28;20030;-62
2023/06/22 13:17:14;;;;;;;7.28;4.40;;;;;;;;;;4994470;28;20030;-63
2023/06/22 13:19:40;;;;;;;9.73;5.07;;;;;;;;;;4995966;28;20490;-62
2023/06/22 13:22:05;;;;;;;6.68;4.18;;;;;;;;;;4995612;28;20033;-62
2023/06/22 13:24:30;;;;;;;6.20;4.20;;;;;;;;;;4995902;28;20022;-62
2023/06/22 13:26:56;;;;;;;6.53;3.95;;;;;;;;;;4990951;28;20022;-62
2023/06/22 13:29:21;;;;;;;6.20;4.18;;;;;;;;;;4993429;28;20026;-62
2023/06/22 13:31:46;;;;;;;6.65;4.30;;;;;;;;;;4994313;28;20457;-62
2023/06/22 13:34:12;;;;;;;7.88;4.22;;;;;;;;;;4992575;28;20030;-62
2023/06/22 13:36:37;;;;;;;7.25;3.83;;;;;;;;;;4992309;28;20481;-62
2023/06/22 13:39:03;;;;;;;6.20;4.32;;;;;;;;;;4994522;28;20085;-62
2023/06/22 13:41:28;;;;;;;5.97;4.60;;;;;;;;;;4991800;28;20045;-62
2023/06/22 13:43:54;;;;;;;7.70;4.70;;;;;;;;;;4993291;28;20049;-62
2023/06/22 13:46:19;;;;;;;9.82;4.50;;;;;;;;;;4987835;28;20027;-62
2023/06/22 13:48:44;;;;;;;7.40;4.47;;;;;;;;;;4987472;28;20018;-62
2023/06/22 13:51:10;;;;;;;8.00;4.72;;;;;;;;;;4992199;28;20052;-62
2023/06/22 13:53:35;;;;;;;7.82;4.20;;;;;;;;;;4992824;28;20026;-62
2023/06/22 13:56:00;;;;;;;7.25;4.32;;;;;;;;;;4995349;28;20022;-62
2023/06/22 13:58:26;;;;;;;6.28;4.53;;;;;;;;;;4982935;28;20038;-62
2023/06/22 14:00:51;;;;;;;8.27;5.10;;;;;;;;;;4992349;28;20018;-62
2023/06/22 14:03:16;;;;;;;6.93;4.70;;;;;;;;;;4993324;28;20054;-62
2023/06/22 14:05:42;;;;;;;6.97;4.90;;;;;;;;;;4993135;28;20085;-62
2023/06/22 14:08:07;;;;;;;9.95;4.90;;;;;;;;;;4995005;28;20018;-61
2023/06/22 14:10:32;;;;;;;7.93;5.20;;;;;;;;;;4992074;28;20026;-62
2023/06/22 14:12:59;;;;;;;9.38;5.10;;;;;;;;;;4993025;28;20516;-62
2023/06/22 14:15:25;;;;;;;9.25;5.30;;;;;;;;;;4993500;28;20041;-62
2023/06/22 14:17:50;;;;;;;7.15;5.03;;;;;;;;;;4994879;28;20112;-62
2023/06/22 14:20:15;;;;;;;8.15;5.00;;;;;;;;;;4991609;28;21590;-62
2023/06/22 14:22:41;;;;;;;10.00;4.70;;;;;;;;;;4990637;28;20113;-62
2023/06/22 14:25:06;;;;;;;7.85;5.07;;;;;;;;;;4992933;28;20022;-62
2023/06/22 14:27:32;;;;;;;8.07;5.50;;;;;;;;;;4992572;28;20019;-62
2023/06/22 14:29:57;;;;;;;10.07;5.05;;;;;;;;;;4992006;28;20022;-62